sensor_id;sensor_type;location;lat;lon;timestamp;temperature;humidity
20315;DHT22;10315;50.958;13.080;2023-04-15T00:08:25;5.60;99.90
20315;DHT22;10315;50.958;13.080;2023-04-15T00:18:27;5.50;99.90
20315;DHT22;10315;50.958;13.080;2023-04-15T00:28:33;5.60;99.90
20315;DHT22;10315;50.958;13.080;2023-04-15T00:38:37;5.60;99.90
20315;DHT22;10315;50.958;13.080;2023-04-15T00:48:41;5.60;99.90
20315;DHT22;10315;50.958;13.080;2023-04-15T00:58:43;5.60;99.90
20315;DHT22;10315;50.958;13.080;2023-04-15T01:08:45;5.60;99.90
20315;DHT22;10315;50.958;13.080;2023-04-15T01:18:47;5.60;99.90
20315;DHT22;10315;50.958;13.080;2023-04-15T01:28:50;5.60;99.90
20315;DHT22;10315;50.958;13.080;2023-04-15T01:38:52;5.60;99.90
20315;DHT22;10315;50.958;13.080;2023-04-15T01:48:55;5.50;99.90
20315;DHT22;10315;50.958;13.080;2023-04-15T01:58:57;5.60;99.90
20315;DHT22;10315;50.958;13.080;2023-04-15T02:08:59;5.60;99.90
20315;DHT22;10315;50.958;13.080;2023-04-15T02:19:01;5.60;99.90
20315;DHT22;10315;50.958;13.080;2023-04-15T02:29:04;5.60;99.90
20315;DHT22;10315;50.958;13.080;2023-04-15T02:39:06;5.70;99.90
20315;DHT22;10315;50.958;13.080;2023-04-15T02:49:09;5.60;99.90
20315;DHT22;10315;50.958;13.080;2023-04-15T02:59:15;5.70;99.90
20315;DHT22;10315;50.958;13.080;2023-04-15T03:09:18;5.70;99.90
20315;DHT22;10315;50.958;13.080;2023-04-15T03:19:20;5.70;99.90
20315;DHT22;10315;50.958;13.080;2023-04-15T03:29:23;5.70;99.90
20315;DHT22;10315;50.958;13.080;2023-04-15T03:39:24;5.60;99.90
20315;DHT22;10315;50.958;13.080;2023-04-15T03:49:27;5.60;99.90
20315;DHT22;10315;50.958;13.080;2023-04-15T03:59:29;5.70;99.90
20315;DHT22;10315;50.958;13.080;2023-04-15T04:09:32;5.70;99.90
20315;DHT22;10315;50.958;13.080;2023-04-15T04:19:34;5.70;99.90
20315;DHT22;10315;50.958;13.080;2023-04-15T04:29:36;5.70;99.90
20315;DHT22;10315;50.958;13.080;2023-04-15T04:39:38;5.70;99.90
20315;DHT22;10315;50.958;13.080;2023-04-15T04:49:41;5.60;99.90
20315;DHT22;10315;50.958;13.080;2023-04-15T04:59:43;5.60;99.90
20315;DHT22;10315;50.958;13.080;2023-04-15T05:09:46;5.60;99.90
20315;DHT22;10315;50.958;13.080;2023-04-15T05:19:48;5.60;99.90
20315;DHT22;10315;50.958;13.080;2023-04-15T05:29:51;5.70;99.90
20315;DHT22;10315;50.958;13.080;2023-04-15T05:39:52;5.70;99.90
20315;DHT22;10315;50.958;13.080;2023-04-15T05:49:55;5.70;99.90
20315;DHT22;10315;50.958;13.080;2023-04-15T05:59:58;5.80;99.90
20315;DHT22;10315;50.958;13.080;2023-04-15T06:10:01;5.80;99.90
20315;DHT22;10315;50.958;13.080;2023-04-15T06:20:03;5.70;99.90
20315;DHT22;10315;50.958;13.080;2023-04-15T06:30:07;5.80;99.90
20315;DHT22;10315;50.958;13.080;2023-04-15T06:40:10;5.80;99.90
20315;DHT22;10315;50.958;13.080;2023-04-15T06:50:13;5.90;99.90
20315;DHT22;10315;50.958;13.080;2023-04-15T07:00:15;6.10;99.90
20315;DHT22;10315;50.958;13.080;2023-04-15T07:10:18;6.10;99.90
20315;DHT22;10315;50.958;13.080;2023-04-15T07:20:19;6.30;99.90
20315;DHT22;10315;50.958;13.080;2023-04-15T07:30:23;6.40;99.90
20315;DHT22;10315;50.958;13.080;2023-04-15T07:40:25;6.40;99.90
20315;DHT22;10315;50.958;13.080;2023-04-15T07:50:28;6.40;99.90
20315;DHT22;10315;50.958;13.080;2023-04-15T08:00:30;6.40;99.90
20315;DHT22;10315;50.958;13.080;2023-04-15T08:10:33;6.50;99.90
20315;DHT22;10315;50.958;13.080;2023-04-15T08:20:35;6.50;99.90
20315;DHT22;10315;50.958;13.080;2023-04-15T08:30:38;6.70;99.90
20315;DHT22;10315;50.958;13.080;2023-04-15T08:40:41;7.20;99.90
20315;DHT22;10315;50.958;13.080;2023-04-15T08:50:45;7.00;99.90
20315;DHT22;10315;50.958;13.080;2023-04-15T09:00:46;7.00;99.90
20315;DHT22;10315;50.958;13.080;2023-04-15T09:10:49;7.20;99.90
20315;DHT22;10315;50.958;13.080;2023-04-15T09:20:52;7.50;99.90
20315;DHT22;10315;50.958;13.080;2023-04-15T09:31:06;7.60;99.90
20315;DHT22;10315;50.958;13.080;2023-04-15T09:41:16;8.00;99.90
20315;DHT22;10315;50.958;13.080;2023-04-15T09:51:33;8.20;99.90
20315;DHT22;10315;50.958;13.080;2023-04-15T10:01:35;8.80;99.90
20315;DHT22;10315;50.958;13.080;2023-04-15T10:11:38;9.10;99.90
20315;DHT22;10315;50.958;13.080;2023-04-15T10:21:42;10.10;99.90
20315;DHT22;10315;50.958;13.080;2023-04-15T10:31:46;9.90;99.90
20315;DHT22;10315;50.958;13.080;2023-04-15T10:42:05;9.60;99.90
20315;DHT22;10315;50.958;13.080;2023-04-15T10:52:08;9.20;99.90
20315;DHT22;10315;50.958;13.080;2023-04-15T11:02:12;9.30;99.90
20315;DHT22;10315;50.958;13.080;2023-04-15T11:12:16;9.40;99.90
20315;DHT22;10315;50.958;13.080;2023-04-15T11:22:19;9.30;99.90
20315;DHT22;10315;50.958;13.080;2023-04-15T11:32:22;9.20;99.90
20315;DHT22;10315;50.958;13.080;2023-04-15T11:42:24;9.40;99.90
20315;DHT22;10315;50.958;13.080;2023-04-15T11:52:26;9.60;99.90
20315;DHT22;10315;50.958;13.080;2023-04-15T12:02:30;9.40;99.90
20315;DHT22;10315;50.958;13.080;2023-04-15T12:12:33;9.20;99.90
20315;DHT22;10315;50.958;13.080;2023-04-15T12:22:36;9.20;99.90
20315;DHT22;10315;50.958;13.080;2023-04-15T12:32:39;9.50;99.90
20315;DHT22;10315;50.958;13.080;2023-04-15T12:42:42;10.30;99.90
20315;DHT22;10315;50.958;13.080;2023-04-15T12:52:45;10.30;99.90
20315;DHT22;10315;50.958;13.080;2023-04-15T13:02:49;10.70;99.90
20315;DHT22;10315;50.958;13.080;2023-04-15T13:12:52;11.20;99.90
20315;DHT22;10315;50.958;13.080;2023-04-15T13:22:55;10.90;99.90
20315;DHT22;10315;50.958;13.080;2023-04-15T13:32:58;10.30;99.90
20315;DHT22;10315;50.958;13.080;2023-04-15T13:43:00;9.80;99.90
20315;DHT22;10315;50.958;13.080;2023-04-15T13:53:04;9.60;99.90
20315;DHT22;10315;50.958;13.080;2023-04-15T14:03:05;9.50;99.90
20315;DHT22;10315;50.958;13.080;2023-04-15T14:13:08;9.20;99.90
20315;DHT22;10315;50.958;13.080;2023-04-15T14:23:10;9.30;99.90
20315;DHT22;10315;50.958;13.080;2023-04-15T14:33:13;10.40;99.90
20315;DHT22;10315;50.958;13.080;2023-04-15T14:43:14;11.00;99.90
20315;DHT22;10315;50.958;13.080;2023-04-15T14:53:17;10.90;99.90
20315;DHT22;10315;50.958;13.080;2023-04-15T15:03:19;10.80;99.90
20315;DHT22;10315;50.958;13.080;2023-04-15T15:13:22;10.90;99.90
20315;DHT22;10315;50.958;13.080;2023-04-15T15:23:24;10.90;99.90
20315;DHT22;10315;50.958;13.080;2023-04-15T15:33:27;10.60;99.90
20315;DHT22;10315;50.958;13.080;2023-04-15T15:43:29;10.40;99.90
20315;DHT22;10315;50.958;13.080;2023-04-15T15:53:33;10.00;99.90
20315;DHT22;10315;50.958;13.080;2023-04-15T16:03:35;9.70;99.90
20315;DHT22;10315;50.958;13.080;2023-04-15T16:13:37;9.50;99.90
20315;DHT22;10315;50.958;13.080;2023-04-15T16:23:39;9.40;99.90
20315;DHT22;10315;50.958;13.080;2023-04-15T16:33:42;9.50;99.90
20315;DHT22;10315;50.958;13.080;2023-04-15T16:43:43;9.70;99.90
20315;DHT22;10315;50.958;13.080;2023-04-15T16:53:47;9.50;99.90
20315;DHT22;10315;50.958;13.080;2023-04-15T17:03:50;9.50;99.90
20315;DHT22;10315;50.958;13.080;2023-04-15T17:13:53;9.20;99.90
20315;DHT22;10315;50.958;13.080;2023-04-15T17:23:55;9.00;99.90
20315;DHT22;10315;50.958;13.080;2023-04-15T17:33:58;8.60;99.90
20315;DHT22;10315;50.958;13.080;2023-04-15T17:43:59;8.40;99.90
20315;DHT22;10315;50.958;13.080;2023-04-15T17:54:02;8.40;99.90
20315;DHT22;10315;50.958;13.080;2023-04-15T18:04:04;8.10;99.90
20315;DHT22;10315;50.958;13.080;2023-04-15T18:14:07;8.10;99.90
20315;DHT22;10315;50.958;13.080;2023-04-15T18:24:09;7.80;99.90
20315;DHT22;10315;50.958;13.080;2023-04-15T18:34:26;7.70;99.90
20315;DHT22;10315;50.958;13.080;2023-04-15T18:44:27;7.60;99.90
20315;DHT22;10315;50.958;13.080;2023-04-15T18:54:30;7.40;99.90
20315;DHT22;10315;50.958;13.080;2023-04-15T19:04:32;7.40;99.90
20315;DHT22;10315;50.958;13.080;2023-04-15T19:14:35;7.40;99.90
20315;DHT22;10315;50.958;13.080;2023-04-15T19:24:36;7.50;99.90
20315;DHT22;10315;50.958;13.080;2023-04-15T19:34:40;7.60;99.90
20315;DHT22;10315;50.958;13.080;2023-04-15T19:44:42;7.70;99.90
20315;DHT22;10315;50.958;13.080;2023-04-15T19:54:45;7.60;99.90
20315;DHT22;10315;50.958;13.080;2023-04-15T20:04:48;7.40;99.90
20315;DHT22;10315;50.958;13.080;2023-04-15T20:14:51;7.20;99.90
20315;DHT22;10315;50.958;13.080;2023-04-15T20:24:53;7.00;99.90
20315;DHT22;10315;50.958;13.080;2023-04-15T20:34:56;6.90;99.90
20315;DHT22;10315;50.958;13.080;2023-04-15T20:44:57;6.80;99.90
20315;DHT22;10315;50.958;13.080;2023-04-15T20:55:00;6.90;99.90
20315;DHT22;10315;50.958;13.080;2023-04-15T21:05:04;6.90;99.90
20315;DHT22;10315;50.958;13.080;2023-04-15T21:15:08;7.00;99.90
20315;DHT22;10315;50.958;13.080;2023-04-15T21:25:10;6.90;99.90
20315;DHT22;10315;50.958;13.080;2023-04-15T21:35:13;6.90;99.90
20315;DHT22;10315;50.958;13.080;2023-04-15T21:45:15;7.10;99.90
20315;DHT22;10315;50.958;13.080;2023-04-15T21:55:18;7.10;99.90
20315;DHT22;10315;50.958;13.080;2023-04-15T22:05:20;7.00;99.90
20315;DHT22;10315;50.958;13.080;2023-04-15T22:15:23;6.90;99.90
20315;DHT22;10315;50.958;13.080;2023-04-15T22:25:25;6.90;99.90
20315;DHT22;10315;50.958;13.080;2023-04-15T22:35:28;6.90;99.90
20315;DHT22;10315;50.958;13.080;2023-04-15T22:45:29;6.70;99.90
20315;DHT22;10315;50.958;13.080;2023-04-15T22:55:32;6.70;99.90
20315;DHT22;10315;50.958;13.080;2023-04-15T23:05:34;6.70;99.90
20315;DHT22;10315;50.958;13.080;2023-04-15T23:15:37;6.80;99.90
20315;DHT22;10315;50.958;13.080;2023-04-15T23:25:38;6.70;99.90
20315;DHT22;10315;50.958;13.080;2023-04-15T23:35:41;6.90;99.90
20315;DHT22;10315;50.958;13.080;2023-04-15T23:45:43;6.90;99.90
20315;DHT22;10315;50.958;13.080;2023-04-15T23:55:47;6.70;99.90
